Time;durP1;ratioP1;P1;durP2;ratioP2;P2;SDS_P1;SDS_P2;PMS_P1;PMS_P2;Temp;Humidity;BMP_temperature;BMP_pressure;BME280_temperature;BME280_humidity;BME280_pressure;Samples;Min_cycle;Max_cycle;Signal;HPM_P1;HPM_P2
2024/01/28 00:01:15;;;;;;;22.52;8.32;;;2.00;99.90;;;;;;5073590;28;20040;-56
2024/01/28 00:03:41;;;;;;;22.95;8.30;;;2.30;99.90;;;;;;5073957;28;20427;-56
2024/01/28 00:06:07;;;;;;;19.13;7.90;;;2.30;99.90;;;;;;5074178;28;20047;-55
2024/01/28 00:08:32;;;;;;;22.05;8.43;;;2.30;99.90;;;;;;5074222;28;20048;-55
2024/01/28 00:10:58;;;;;;;24.90;7.97;;;2.00;99.90;;;;;;5073947;28;20043;-55
2024/01/28 00:13:25;;;;;;;20.58;8.05;;;2.10;99.90;;;;;;5073687;28;20419;-56
2024/01/28 00:15:54;;;;;;;21.10;7.90;;;2.30;99.90;;;;;;5073117;28;20471;-55
2024/01/28 00:18:20;;;;;;;21.75;8.35;;;2.40;99.90;;;;;;5072726;28;20036;-55
2024/01/28 00:20:47;;;;;;;18.95;7.93;;;2.30;99.90;;;;;;5071842;28;20040;-56
2024/01/28 00:23:13;;;;;;;21.95;7.72;;;2.30;99.90;;;;;;5073456;28;20097;-55
2024/01/28 00:25:39;;;;;;;24.50;7.47;;;2.30;99.90;;;;;;5074022;28;20079;-55
2024/01/28 00:28:05;;;;;;;23.33;7.65;;;2.30;99.90;;;;;;5073497;28;20693;-57
2024/01/28 00:30:32;;;;;;;25.42;8.55;;;2.00;99.90;;;;;;5073322;28;20091;-56
2024/01/28 00:32:58;;;;;;;24.95;8.15;;;2.30;99.90;;;;;;5073581;28;20037;-56
2024/01/28 00:35:24;;;;;;;20.40;8.63;;;2.10;99.90;;;;;;5073407;28;20174;-56
2024/01/28 00:37:50;;;;;;;16.90;7.05;;;2.20;99.90;;;;;;5072978;28;20120;-56
2024/01/28 00:40:15;;;;;;;21.83;8.63;;;1.90;99.90;;;;;;5073229;28;20047;-57
2024/01/28 00:42:41;;;;;;;19.98;8.68;;;1.90;99.90;;;;;;5073273;28;20492;-56
2024/01/28 00:45:07;;;;;;;16.38;8.15;;;1.90;99.90;;;;;;5073332;28;20196;-55
2024/01/28 00:47:33;;;;;;;25.70;9.23;;;1.90;99.90;;;;;;5071923;28;20059;-54
2024/01/28 00:49:58;;;;;;;27.08;9.68;;;2.10;99.90;;;;;;5071920;28;20037;-56
2024/01/28 00:52:24;;;;;;;25.63;10.45;;;2.10;99.90;;;;;;5073106;28;20041;-55
2024/01/28 00:54:50;;;;;;;24.73;9.13;;;1.90;99.90;;;;;;5071825;28;20495;-56
2024/01/28 00:57:15;;;;;;;23.27;9.95;;;2.00;99.90;;;;;;5073192;28;20063;-55
2024/01/28 00:59:41;;;;;;;23.17;9.82;;;2.00;99.90;;;;;;5072561;28;20047;-56
2024/01/28 01:02:07;;;;;;;26.00;9.77;;;2.00;99.90;;;;;;5072958;28;20032;-55
2024/01/28 01:04:32;;;;;;;26.27;10.05;;;2.00;99.90;;;;;;5073031;28;20070;-55
2024/01/28 01:06:58;;;;;;;22.45;10.13;;;2.00;99.90;;;;;;5070748;28;20038;-55
2024/01/28 01:09:24;;;;;;;28.13;10.05;;;1.90;99.90;;;;;;5071470;28;20036;-55
2024/01/28 01:11:50;;;;;;;23.40;9.40;;;2.00;99.90;;;;;;5072694;28;20037;-55
2024/01/28 01:14:16;;;;;;;24.50;9.40;;;2.00;99.90;;;;;;5072796;28;20131;-55
2024/01/28 01:16:41;;;;;;;30.02;9.43;;;1.70;99.90;;;;;;5070106;28;20066;-56
2024/01/28 01:19:07;;;;;;;23.88;9.30;;;2.00;99.90;;;;;;5072617;28;20510;-56
2024/01/28 01:21:33;;;;;;;23.50;8.85;;;1.70;99.90;;;;;;5071762;28;20491;-55
2024/01/28 01:23:58;;;;;;;24.83;9.32;;;1.50;99.90;;;;;;5072425;28;20447;-54
2024/01/28 01:26:24;;;;;;;24.05;10.23;;;1.50;99.90;;;;;;5072191;28;20047;-56
2024/01/28 01:28:50;;;;;;;20.75;9.00;;;1.50;99.90;;;;;;5072375;28;20044;-55
2024/01/28 01:31:16;;;;;;;21.23;8.57;;;1.60;99.90;;;;;;5072348;28;20446;-54
2024/01/28 01:33:42;;;;;;;26.10;9.05;;;1.60;99.90;;;;;;5072461;28;20044;-55
2024/01/28 01:36:08;;;;;;;19.20;7.78;;;1.80;99.90;;;;;;5070996;28;20046;-55
2024/01/28 01:38:33;;;;;;;24.98;8.35;;;1.60;99.90;;;;;;5072200;28;20514;-56
2024/01/28 01:40:59;;;;;;;21.20;7.90;;;1.80;99.90;;;;;;5071868;28;20052;-55
2024/01/28 01:43:25;;;;;;;25.92;7.63;;;1.50;99.90;;;;;;5071544;28;20036;-51
2024/01/28 01:45:52;;;;;;;23.92;8.55;;;1.90;99.90;;;;;;5072087;28;20033;-55
2024/01/28 01:48:18;;;;;;;19.67;7.93;;;1.80;99.90;;;;;;5070691;28;20040;-55
2024/01/28 01:50:44;;;;;;;21.48;8.65;;;1.50;99.90;;;;;;5071607;28;20036;-55
2024/01/28 01:53:11;;;;;;;17.65;7.97;;;1.70;99.90;;;;;;5071985;28;20047;-55
2024/01/28 01:55:40;;;;;;;25.23;8.52;;;1.50;99.90;;;;;;5071489;28;20041;-55
2024/01/28 01:58:07;;;;;;;24.83;8.75;;;1.80;99.90;;;;;;5070338;28;20455;-55
2024/01/28 02:00:34;;;;;;;21.20;8.98;;;1.90;99.90;;;;;;5071650;28;20403;-55
2024/01/28 02:03:01;;;;;;;19.02;8.18;;;2.00;99.90;;;;;;5071593;28;20396;-55
2024/01/28 02:05:27;;;;;;;24.15;8.55;;;1.50;99.90;;;;;;5071519;28;20029;-54
2024/01/28 02:07:53;;;;;;;20.83;8.38;;;1.90;99.90;;;;;;5071705;28;20086;-53
2024/01/28 02:10:21;;;;;;;22.58;8.68;;;1.50;99.90;;;;;;5071079;28;20404;-56
2024/01/28 02:12:49;;;;;;;22.42;8.73;;;1.70;99.90;;;;;;5085915;28;20059;-55
2024/01/28 02:15:16;;;;;;;20.98;8.35;;;1.60;99.90;;;;;;5071397;28;20041;-56
2024/01/28 02:17:43;;;;;;;21.90;8.75;;;1.80;99.90;;;;;;5071730;28;20415;-56
2024/01/28 02:20:09;;;;;;;26.55;8.55;;;2.00;99.90;;;;;;5070217;28;20059;-56
2024/01/28 02:22:35;;;;;;;24.52;8.40;;;1.90;99.90;;;;;;5070905;28;20085;-54
2024/01/28 02:25:03;;;;;;;20.38;7.82;;;1.90;99.90;;;;;;5071164;28;20139;-54
2024/01/28 02:27:29;;;;;;;14.98;8.15;;;1.60;99.90;;;;;;5071143;28;20044;-55
2024/01/28 02:29:55;;;;;;;24.20;9.20;;;1.70;99.90;;;;;;5069425;28;20076;-54
2024/01/28 02:32:21;;;;;;;22.50;8.55;;;2.00;99.90;;;;;;5070289;28;20089;-54
2024/01/28 02:34:46;;;;;;;21.90;8.60;;;1.80;99.90;;;;;;5070773;28;20033;-53
2024/01/28 02:37:12;;;;;;;26.55;8.50;;;1.60;99.90;;;;;;5070828;28;20079;-55
2024/01/28 02:39:39;;;;;;;25.67;9.48;;;1.90;99.90;;;;;;5070969;28;20044;-56
2024/01/28 02:42:05;;;;;;;21.75;8.95;;;1.90;99.90;;;;;;5071146;28;20040;-54
2024/01/28 02:44:31;;;;;;;25.85;9.13;;;1.80;99.90;;;;;;5070368;28;20091;-55
2024/01/28 02:46:56;;;;;;;23.77;9.00;;;2.00;99.90;;;;;;5069913;28;20060;-56
2024/01/28 02:49:23;;;;;;;22.73;8.48;;;1.60;99.90;;;;;;5068646;28;20045;-55
2024/01/28 02:51:51;;;;;;;20.50;8.30;;;1.60;99.90;;;;;;5070370;28;20047;-54
2024/01/28 02:54:17;;;;;;;22.02;8.52;;;2.00;99.90;;;;;;5070724;28;20170;-56
2024/01/28 02:56:43;;;;;;;22.10;8.77;;;2.00;99.90;;;;;;5070715;28;20136;-55
2024/01/28 02:59:10;;;;;;;18.70;7.68;;;1.60;99.90;;;;;;5071013;28;20033;-55
2024/01/28 03:01:45;;;;;;;23.25;9.18;;;1.70;99.90;;;;;;5070766;28;20511;-56
2024/01/28 03:04:11;;;;;;;24.45;8.75;;;1.70;99.90;;;;;;5070749;28;20047;-54
2024/01/28 03:06:36;;;;;;;24.25;8.15;;;1.70;99.90;;;;;;5069829;28;20115;-55
2024/01/28 03:09:04;;;;;;;28.10;8.70;;;1.90;99.90;;;;;;5070602;28;20062;-55
2024/01/28 03:11:30;;;;;;;26.42;8.18;;;1.90;99.90;;;;;;5070575;28;20039;-56
2024/01/28 03:13:56;;;;;;;20.23;8.90;;;1.90;99.90;;;;;;5069859;28;20434;-55
2024/01/28 03:16:22;;;;;;;22.63;9.23;;;1.90;99.90;;;;;;5069827;28;20032;-54
2024/01/28 03:18:48;;;;;;;23.00;9.07;;;1.90;99.90;;;;;;5070207;28;20036;-55
2024/01/28 03:21:13;;;;;;;30.42;9.35;;;1.70;99.90;;;;;;5070093;28;20078;-56
2024/01/28 03:23:39;;;;;;;27.45;9.63;;;1.60;99.90;;;;;;5070302;28;20064;-55
2024/01/28 03:26:05;;;;;;;24.98;8.07;;;1.90;99.90;;;;;;5070536;28;20093;-55
2024/01/28 03:28:31;;;;;;;23.27;8.52;;;1.60;99.90;;;;;;5070693;28;20039;-55
2024/01/28 03:30:57;;;;;;;27.55;8.60;;;1.90;99.90;;;;;;5070041;28;20040;-56
2024/01/28 03:33:23;;;;;;;22.80;8.30;;;1.60;99.90;;;;;;5069832;28;20044;-54
2024/01/28 03:35:48;;;;;;;19.00;7.95;;;1.70;99.90;;;;;;5069159;28;20107;-55
2024/01/28 03:38:14;;;;;;;19.98;8.15;;;1.80;99.90;;;;;;5070321;28;20043;-54
2024/01/28 03:40:40;;;;;;;27.73;8.88;;;1.70;99.90;;;;;;5068834;28;20048;-54
2024/01/28 03:43:05;;;;;;;19.75;7.97;;;1.70;99.90;;;;;;5070527;28;20377;-55
2024/01/28 03:45:31;;;;;;;20.08;8.35;;;2.00;99.90;;;;;;5069965;28;20028;-54
2024/01/28 03:47:56;;;;;;;23.80;8.55;;;1.80;99.90;;;;;;5070415;28;20044;-56
2024/01/28 03:50:24;;;;;;;18.63;8.57;;;1.90;99.90;;;;;;5068706;28;20045;-55
2024/01/28 03:52:49;;;;;;;23.70;8.57;;;1.60;99.90;;;;;;5069900;28;20119;-55
2024/01/28 03:55:15;;;;;;;20.60;8.05;;;1.80;99.90;;;;;;5069552;28;20556;-54
2024/01/28 03:57:43;;;;;;;19.95;7.60;;;1.60;99.90;;;;;;5070472;28;20025;-55
2024/01/28 04:00:11;;;;;;;17.98;7.82;;;1.60;99.90;;;;;;5070108;28;20072;-55
2024/01/28 04:02:37;;;;;;;24.08;8.38;;;1.80;99.90;;;;;;5070239;28;20036;-55
2024/01/28 04:05:03;;;;;;;24.25;8.18;;;1.60;99.90;;;;;;5069975;28;20036;-55
2024/01/28 04:07:29;;;;;;;24.65;8.02;;;1.60;99.90;;;;;;5070079;28;20553;-55
2024/01/28 04:09:55;;;;;;;21.42;9.00;;;1.70;99.90;;;;;;5069837;28;20044;-56
2024/01/28 04:12:21;;;;;;;22.40;8.63;;;1.80;99.90;;;;;;5069054;28;20384;-54
2024/01/28 04:14:47;;;;;;;24.00;8.73;;;1.80;99.90;;;;;;5068734;28;20037;-54
2024/01/28 04:17:13;;;;;;;19.65;8.40;;;1.60;99.90;;;;;;5069878;28;20098;-55
2024/01/28 04:19:38;;;;;;;19.30;8.43;;;1.50;99.90;;;;;;5069574;28;20065;-54
2024/01/28 04:22:04;;;;;;;22.83;7.97;;;1.70;99.90;;;;;;5069278;28;20040;-55
2024/01/28 04:24:30;;;;;;;17.48;7.30;;;1.70;99.90;;;;;;5070390;28;20086;-55
2024/01/28 04:26:56;;;;;;;21.02;8.30;;;1.60;99.90;;;;;;5073602;28;20032;-54
2024/01/28 04:29:22;;;;;;;22.30;8.10;;;1.60;99.90;;;;;;5073559;28;20111;-55
2024/01/28 04:31:47;;;;;;;19.40;8.50;;;1.30;99.90;;;;;;5073320;28;20116;-54
2024/01/28 04:34:14;;;;;;;16.10;7.35;;;1.60;99.90;;;;;;5073591;28;20041;-55
2024/01/28 04:36:39;;;;;;;27.58;8.50;;;1.30;99.90;;;;;;5073314;28;20040;-56
2024/01/28 04:39:05;;;;;;;22.75;8.55;;;1.60;99.90;;;;;;5072143;28;20177;-56
2024/01/28 04:41:31;;;;;;;20.98;8.10;;;1.60;99.90;;;;;;5073239;28;20039;-55
2024/01/28 04:43:56;;;;;;;21.15;8.18;;;1.30;99.90;;;;;;5071990;28;20392;-56
2024/01/28 04:46:22;;;;;;;23.08;7.25;;;1.70;99.90;;;;;;5072457;28;20475;-53
2024/01/28 04:48:48;;;;;;;23.40;8.68;;;1.20;99.90;;;;;;5072172;28;20384;-55
2024/01/28 04:51:13;;;;;;;18.08;7.45;;;1.20;99.90;;;;;;5073293;28;20485;-54
2024/01/28 04:53:39;;;;;;;21.75;8.68;;;1.10;99.90;;;;;;5072791;28;20055;-56
2024/01/28 04:56:05;;;;;;;25.08;8.50;;;1.50;99.90;;;;;;5073381;28;20033;-56
2024/01/28 04:58:31;;;;;;;18.23;7.72;;;1.10;99.90;;;;;;5073222;28;20143;-56
2024/01/28 05:00:56;;;;;;;17.30;7.55;;;1.20;99.90;;;;;;5072579;28;20037;-54
2024/01/28 05:03:22;;;;;;;18.75;7.63;;;1.30;99.90;;;;;;5072645;28;20063;-55
2024/01/28 05:05:47;;;;;;;19.60;8.02;;;1.30;99.90;;;;;;5072979;28;20060;-55
2024/01/28 05:08:14;;;;;;;19.73;8.15;;;1.40;99.90;;;;;;5072819;28;20478;-56
2024/01/28 05:10:40;;;;;;;21.15;7.95;;;1.10;99.90;;;;;;5072866;28;20044;-53
2024/01/28 05:13:05;;;;;;;20.40;7.13;;;1.00;99.90;;;;;;5072473;28;20063;-55
2024/01/28 05:15:31;;;;;;;19.17;8.35;;;1.20;99.90;;;;;;5072493;28;20028;-55
2024/01/28 05:17:58;;;;;;;21.05;8.00;;;1.00;99.90;;;;;;5072801;28;20036;-55
2024/01/28 05:20:23;;;;;;;22.92;7.88;;;1.00;99.90;;;;;;5072216;28;20044;-55
2024/01/28 05:22:51;;;;;;;20.77;8.57;;;1.30;99.90;;;;;;5072013;28;20044;-55
2024/01/28 05:25:17;;;;;;;20.52;8.15;;;1.00;99.90;;;;;;5072765;28;20045;-55
2024/01/28 05:27:42;;;;;;;24.17;8.40;;;1.00;99.90;;;;;;5072465;28;20116;-56
2024/01/28 05:30:09;;;;;;;22.55;7.75;;;1.10;99.90;;;;;;5072664;28;20052;-55
2024/01/28 05:32:35;;;;;;;17.77;7.72;;;1.30;99.90;;;;;;5072027;28;20037;-54
2024/01/28 05:35:03;;;;;;;21.55;7.97;;;1.30;99.90;;;;;;5072124;28;20383;-55
2024/01/28 05:37:29;;;;;;;24.08;8.60;;;1.60;99.90;;;;;;5071532;28;20116;-56
2024/01/28 05:39:54;;;;;;;20.67;7.82;;;1.00;99.90;;;;;;5072526;28;20444;-55
2024/01/28 05:42:20;;;;;;;24.60;8.07;;;1.20;99.90;;;;;;5072404;28;20055;-55
2024/01/28 05:44:46;;;;;;;17.08;8.10;;;1.20;99.90;;;;;;5072206;28;20514;-55
2024/01/28 05:47:11;;;;;;;20.85;8.05;;;1.00;99.90;;;;;;5072245;28;20040;-55
2024/01/28 05:49:37;;;;;;;22.40;8.25;;;1.30;99.90;;;;;;5070810;28;20041;-54
2024/01/28 05:52:03;;;;;;;21.75;8.20;;;1.00;99.90;;;;;;5071802;28;20036;-55
2024/01/28 05:54:30;;;;;;;20.60;8.13;;;1.20;99.90;;;;;;5072151;28;20472;-56
2024/01/28 05:56:56;;;;;;;22.92;8.25;;;1.20;99.90;;;;;;5071298;28;20040;-54
2024/01/28 05:59:21;;;;;;;18.08;8.18;;;1.00;99.90;;;;;;5071810;28;20369;-56
2024/01/28 06:01:47;;;;;;;22.38;7.85;;;1.00;99.90;;;;;;5071746;28;20036;-56
2024/01/28 06:04:13;;;;;;;18.98;7.75;;;0.90;99.90;;;;;;5070481;28;20048;-57
2024/01/28 06:06:39;;;;;;;23.20;8.52;;;1.00;99.90;;;;;;5071965;28;20045;-55
2024/01/28 06:09:05;;;;;;;22.30;8.25;;;0.90;99.90;;;;;;5071479;28;20400;-55
2024/01/28 06:11:30;;;;;;;18.33;7.75;;;1.10;99.90;;;;;;5072329;28;20133;-56
2024/01/28 06:13:56;;;;;;;18.38;8.55;;;0.90;99.90;;;;;;5071441;28;20082;-54
2024/01/28 06:16:22;;;;;;;22.80;8.45;;;1.00;99.90;;;;;;5071470;28;20043;-55
2024/01/28 06:18:47;;;;;;;24.90;8.20;;;0.80;99.90;;;;;;5071285;28;20102;-55
2024/01/28 06:21:13;;;;;;;24.23;8.07;;;0.80;99.90;;;;;;5071165;28;20028;-55
2024/01/28 06:23:41;;;;;;;21.02;8.38;;;0.90;99.90;;;;;;5071647;28;20052;-55
2024/01/28 06:26:07;;;;;;;17.05;8.18;;;0.90;99.90;;;;;;5071258;28;20098;-55
2024/01/28 06:28:33;;;;;;;22.00;8.20;;;0.90;99.90;;;;;;5071155;28;20051;-55
2024/01/28 06:30:59;;;;;;;16.95;7.80;;;0.90;99.90;;;;;;5071248;28;20045;-55
2024/01/28 06:33:24;;;;;;;13.63;7.07;;;0.90;99.90;;;;;;5071133;28;20036;-56
2024/01/28 06:35:50;;;;;;;21.48;8.70;;;0.60;99.90;;;;;;5071292;28;20111;-55
2024/01/28 06:38:17;;;;;;;22.10;8.05;;;0.80;99.90;;;;;;5071211;28;20051;-56
2024/01/28 06:40:42;;;;;;;16.73;8.57;;;0.60;99.90;;;;;;5071400;28;20072;-55
2024/01/28 06:43:08;;;;;;;21.60;7.43;;;0.50;99.90;;;;;;5071081;28;20472;-54
2024/01/28 06:45:34;;;;;;;23.70;7.93;;;0.80;99.90;;;;;;5071480;28;20040;-55
2024/01/28 06:47:59;;;;;;;21.92;8.57;;;0.40;99.90;;;;;;5070890;28;20044;-55
2024/01/28 06:50:25;;;;;;;22.67;7.80;;;0.50;99.90;;;;;;5070075;28;20041;-54
2024/01/28 06:52:50;;;;;;;23.05;7.80;;;0.40;99.90;;;;;;5070258;28;20040;-55
2024/01/28 06:55:17;;;;;;;25.67;9.13;;;0.60;99.90;;;;;;5071181;28;20062;-55
2024/01/28 06:57:42;;;;;;;15.93;8.07;;;0.30;99.90;;;;;;5071095;28;20460;-55
2024/01/28 07:00:13;;;;;;;24.83;8.65;;;0.60;99.90;;;;;;5071011;28;20036;-55
2024/01/28 07:02:39;;;;;;;17.85;8.57;;;0.60;99.90;;;;;;5070864;28;20090;-56
2024/01/28 07:05:05;;;;;;;19.40;7.32;;;0.70;99.90;;;;;;5070495;28;20047;-55
2024/01/28 07:07:31;;;;;;;18.98;8.20;;;0.60;99.90;;;;;;5069266;28;20380;-56
2024/01/28 07:09:57;;;;;;;20.08;8.50;;;0.40;99.90;;;;;;5070938;28;20040;-55
2024/01/28 07:12:22;;;;;;;16.58;8.38;;;0.60;99.90;;;;;;5070632;28;20043;-55
2024/01/28 07:14:48;;;;;;;17.85;8.35;;;0.50;99.90;;;;;;5070388;28;20142;-55
2024/01/28 07:17:14;;;;;;;20.42;8.10;;;0.50;99.90;;;;;;5070474;28;20093;-54
2024/01/28 07:19:41;;;;;;;16.55;8.00;;;0.60;99.90;;;;;;5070476;28;20050;-56
2024/01/28 07:22:07;;;;;;;17.02;7.85;;;0.30;99.90;;;;;;5070201;28;20044;-54
2024/01/28 07:24:33;;;;;;;18.38;7.97;;;0.60;99.90;;;;;;5070468;28;20132;-56
2024/01/28 07:26:58;;;;;;;19.10;8.23;;;0.30;99.90;;;;;;5070673;28;20052;-55
2024/01/28 07:29:24;;;;;;;18.95;7.70;;;0.30;99.90;;;;;;5070261;28;20404;-56
2024/01/28 07:31:51;;;;;;;19.17;8.35;;;0.30;99.90;;;;;;5070346;28;20067;-56
2024/01/28 07:34:19;;;;;;;17.50;7.88;;;0.60;99.90;;;;;;5070325;28;20040;-54
2024/01/28 07:36:47;;;;;;;20.95;7.25;;;0.40;99.90;;;;;;5070897;28;20484;-54
2024/01/28 07:39:14;;;;;;;16.20;7.75;;;0.30;99.90;;;;;;5070356;28;20076;-55
2024/01/28 07:41:40;;;;;;;20.27;7.80;;;0.60;99.90;;;;;;5070634;28;20048;-56
2024/01/28 07:44:06;;;;;;;26.20;7.88;;;0.60;99.90;;;;;;5070329;28;20052;-55
2024/01/28 07:46:32;;;;;;;20.25;8.38;;;0.80;99.90;;;;;;5068755;28;20119;-55
2024/01/28 07:48:58;;;;;;;18.85;8.07;;;0.50;99.90;;;;;;5068976;28;20106;-54
2024/01/28 07:51:23;;;;;;;19.00;8.27;;;0.70;99.90;;;;;;5069041;28;20387;-54
2024/01/28 07:53:49;;;;;;;19.10;8.02;;;0.40;99.90;;;;;;5069467;28;20046;-56
2024/01/28 07:56:16;;;;;;;22.58;7.70;;;0.50;99.90;;;;;;5069669;28;20044;-56
2024/01/28 07:58:42;;;;;;;18.15;7.90;;;0.70;99.90;;;;;;5069084;28;20090;-54
2024/01/28 08:01:08;;;;;;;20.75;8.43;;;0.80;99.90;;;;;;5073788;28;20430;-56
2024/01/28 08:03:33;;;;;;;18.50;7.75;;;0.80;99.90;;;;;;5074668;28;20548;-53
2024/01/28 08:05:59;;;;;;;19.83;7.75;;;0.60;99.90;;;;;;5074316;28;20127;-55
2024/01/28 08:08:25;;;;;;;18.35;7.22;;;0.70;99.90;;;;;;5072132;28;20398;-55
2024/01/28 08:10:51;;;;;;;16.58;7.18;;;0.60;99.90;;;;;;5072099;28;20040;-53
2024/01/28 08:13:17;;;;;;;16.00;7.35;;;0.80;99.90;;;;;;5073137;28;20090;-56
2024/01/28 08:15:43;;;;;;;18.08;6.93;;;0.60;99.90;;;;;;5074483;28;20025;-54
2024/01/28 08:18:08;;;;;;;14.40;6.28;;;0.70;99.90;;;;;;5073320;28;20115;-55
2024/01/28 08:20:34;;;;;;;17.85;6.50;;;0.80;99.90;;;;;;5073036;28;20544;-56
2024/01/28 08:23:00;;;;;;;19.73;6.13;;;0.90;99.90;;;;;;5072715;28;20098;-54
2024/01/28 08:25:25;;;;;;;14.55;6.63;;;1.00;99.90;;;;;;5072252;28;20419;-55
2024/01/28 08:27:51;;;;;;;16.90;6.07;;;0.80;99.90;;;;;;5072590;28;20080;-55
2024/01/28 08:30:22;;;;;;;17.90;6.55;;;1.10;99.90;;;;;;5070364;28;20033;-56
2024/01/28 08:32:48;;;;;;;15.23;6.45;;;0.90;99.90;;;;;;5071061;28;20063;-55
2024/01/28 08:35:14;;;;;;;18.63;7.18;;;1.40;99.90;;;;;;5071137;28;20480;-56
2024/01/28 08:37:39;;;;;;;15.93;6.97;;;1.10;99.90;;;;;;5071470;28;20044;-55
2024/01/28 08:40:08;;;;;;;16.40;6.40;;;1.20;99.90;;;;;;5072374;28;20045;-55
2024/01/28 08:42:34;;;;;;;15.75;6.20;;;1.30;99.90;;;;;;5070905;28;20028;-55
2024/01/28 08:45:00;;;;;;;18.25;6.43;;;1.20;99.90;;;;;;5071568;28;20128;-55
2024/01/28 08:47:26;;;;;;;14.73;5.18;;;1.30;99.90;;;;;;5071961;28;20956;-55
2024/01/28 08:49:52;;;;;;;16.65;6.18;;;1.40;99.90;;;;;;5071928;28;20051;-55
2024/01/28 08:52:20;;;;;;;20.85;7.10;;;1.50;99.90;;;;;;5070490;28;20111;-56
2024/01/28 08:54:46;;;;;;;16.73;5.78;;;1.40;99.90;;;;;;5072668;28;20499;-54
2024/01/28 08:57:12;;;;;;;14.50;6.25;;;1.60;99.90;;;;;;5072712;28;20121;-54
2024/01/28 08:59:38;;;;;;;15.32;5.47;;;1.70;99.90;;;;;;5071583;28;20040;-56
2024/01/28 09:02:04;;;;;;;17.58;6.55;;;1.70;99.90;;;;;;5071078;28;20055;-55
2024/01/28 09:04:29;;;;;;;15.18;6.65;;;1.80;99.90;;;;;;5069752;28;20123;-56
2024/01/28 09:06:56;;;;;;;14.25;6.40;;;1.80;99.90;;;;;;5071188;28;20036;-55
2024/01/28 09:09:22;;;;;;;18.00;6.22;;;1.90;99.90;;;;;;5072593;28;20044;-56
2024/01/28 09:11:47;;;;;;;17.90;7.10;;;2.00;99.90;;;;;;5070201;28;20108;-55
2024/01/28 09:14:13;;;;;;;15.48;5.88;;;2.00;99.90;;;;;;5071723;28;20083;-55
2024/01/28 09:16:39;;;;;;;16.08;6.57;;;2.00;99.90;;;;;;5071699;28;20044;-55
2024/01/28 09:19:04;;;;;;;19.00;6.38;;;2.10;99.90;;;;;;5071499;28;20130;-56
2024/01/28 09:21:30;;;;;;;14.40;6.10;;;2.30;99.90;;;;;;5071218;28;20123;-56
2024/01/28 09:23:57;;;;;;;18.30;6.18;;;2.30;99.90;;;;;;5069843;28;20411;-56
2024/01/28 09:26:23;;;;;;;13.02;6.35;;;2.40;99.90;;;;;;5071265;28;20040;-56
2024/01/28 09:28:48;;;;;;;14.20;6.05;;;2.40;99.90;;;;;;5068465;28;20530;-55
2024/01/28 09:31:14;;;;;;;21.20;5.57;;;2.40;99.90;;;;;;5071642;28;20419;-55
2024/01/28 09:33:40;;;;;;;16.13;6.18;;;2.50;99.90;;;;;;5070986;28;20067;-55
2024/01/28 09:36:06;;;;;;;16.23;5.68;;;2.50;99.90;;;;;;5071079;28;20060;-56
2024/01/28 09:38:32;;;;;;;15.35;5.15;;;2.70;99.90;;;;;;5070667;28;20525;-55
2024/01/28 09:41:11;;;;;;;15.10;5.63;;;2.70;99.90;;;;;;5069301;28;20051;-56
2024/01/28 09:43:39;;;;;;;12.20;4.97;;;2.80;99.90;;;;;;5069513;28;20028;-55
2024/01/28 09:46:07;;;;;;;13.85;5.25;;;2.80;99.90;;;;;;5070603;28;20447;-56
2024/01/28 09:48:33;;;;;;;12.68;4.63;;;2.90;99.90;;;;;;5069621;28;20488;-55
2024/01/28 09:50:58;;;;;;;13.48;4.47;;;3.00;99.90;;;;;;5070676;28;20028;-56
2024/01/28 09:53:24;;;;;;;8.98;4.55;;;3.10;99.90;;;;;;5069899;28;20041;-55
2024/01/28 09:55:51;;;;;;;12.07;5.10;;;3.20;99.90;;;;;;5070782;28;20029;-55
2024/01/28 09:58:18;;;;;;;11.85;4.40;;;3.60;99.90;;;;;;5070539;28;20062;-54
2024/01/28 10:00:44;;;;;;;10.43;4.38;;;3.60;99.90;;;;;;5069842;28;20044;-55
2024/01/28 10:03:09;;;;;;;8.68;4.18;;;3.50;99.90;;;;;;5069385;28;20037;-55
2024/01/28 10:05:35;;;;;;;12.15;5.05;;;3.60;99.90;;;;;;5067722;28;20036;-54
2024/01/28 10:08:03;;;;;;;9.77;5.15;;;3.60;99.90;;;;;;5067066;28;20079;-55
2024/01/28 10:10:30;;;;;;;14.80;5.03;;;3.70;99.90;;;;;;5067976;28;20053;-54
2024/01/28 10:12:57;;;;;;;15.07;4.97;;;3.80;99.90;;;;;;5069257;28;20032;-55
2024/01/28 10:15:25;;;;;;;15.25;4.25;;;3.90;99.90;;;;;;5062788;28;20040;-56
2024/01/28 10:17:52;;;;;;;10.15;4.50;;;3.90;99.90;;;;;;5059106;28;20040;-57
2024/01/28 10:20:22;;;;;;;12.95;4.53;;;4.00;99.90;;;;;;5061740;28;20105;-55
2024/01/28 10:22:49;;;;;;;12.85;4.80;;;4.10;99.90;;;;;;5061006;28;20090;-56
2024/01/28 10:25:16;;;;;;;14.95;4.65;;;4.20;99.90;;;;;;5061260;28;20043;-55
2024/01/28 10:27:44;;;;;;;12.15;4.00;;;4.30;99.90;;;;;;5064447;28;20044;-55
2024/01/28 10:30:11;;;;;;;11.40;3.83;;;4.70;99.90;;;;;;5061034;28;20082;-55
2024/01/28 10:32:37;;;;;;;10.65;4.20;;;5.00;99.90;;;;;;5063960;28;20047;-56
2024/01/28 10:35:07;;;;;;;12.80;4.32;;;5.50;99.90;;;;;;5058912;28;20051;-55
2024/01/28 10:37:34;;;;;;;10.30;3.85;;;5.80;99.90;;;;;;5062285;28;20025;-56
2024/01/28 10:40:07;;;;;;;14.68;3.97;;;6.00;99.90;;;;;;5061597;28;20032;-55
2024/01/28 10:42:42;;;;;;;6.80;3.50;;;6.30;99.90;;;;;;5064242;28;20036;-56
2024/01/28 10:45:13;;;;;;;12.40;4.10;;;6.50;99.90;;;;;;5061151;28;20036;-56
2024/01/28 10:47:52;;;;;;;13.43;4.45;;;6.60;99.90;;;;;;5058551;28;20434;-55
2024/01/28 10:50:20;;;;;;;10.55;3.70;;;6.90;99.90;;;;;;5064879;28;21448;-56
2024/01/28 10:52:51;;;;;;;9.48;3.70;;;7.10;99.90;;;;;;5063834;28;20039;-56
2024/01/28 10:55:20;;;;;;;9.50;3.47;;;7.10;99.90;;;;;;5058932;28;20033;-55
2024/01/28 10:57:46;;;;;;;8.68;3.72;;;7.20;99.90;;;;;;5060883;28;20040;-55
2024/01/28 11:00:16;;;;;;;8.52;3.40;;;6.80;99.90;;;;;;5063212;28;20870;-56
2024/01/28 11:02:42;;;;;;;7.97;3.28;;;6.70;99.90;;;;;;5062043;28;20036;-56
2024/01/28 11:05:10;;;;;;;10.15;3.40;;;6.70;99.90;;;;;;5062636;28;20094;-56
2024/01/28 11:07:36;;;;;;;10.02;3.78;;;6.70;99.90;;;;;;5060593;28;20459;-56
2024/01/28 11:10:05;;;;;;;7.40;3.83;;;6.80;99.90;;;;;;5064212;28;20040;-56
2024/01/28 11:12:32;;;;;;;7.28;3.08;;;6.70;99.90;;;;;;5061263;28;20033;-55
2024/01/28 11:14:59;;;;;;;8.88;3.60;;;6.70;99.90;;;;;;5060995;28;20032;-56
2024/01/28 11:17:34;;;;;;;9.48;3.30;;;6.70;99.90;;;;;;5055696;28;20522;-56
2024/01/28 11:20:17;;;;;;;7.75;3.22;;;6.70;99.90;;;;;;5060820;28;20055;-56
2024/01/28 11:22:58;;;;;;;10.90;4.07;;;6.70;99.90;;;;;;5060975;28;20036;-56
2024/01/28 11:25:29;;;;;;;6.60;3.00;;;6.70;99.90;;;;;;5059326;28;20080;-56
2024/01/28 11:28:05;;;;;;;12.57;3.67;;;6.90;99.90;;;;;;5059661;28;20043;-56
2024/01/28 11:30:33;;;;;;;10.18;3.47;;;7.00;99.90;;;;;;5057645;28;20123;-57
2024/01/28 11:33:11;;;;;;;6.85;2.95;;;7.30;99.90;;;;;;5060062;28;20090;-56
2024/01/28 11:35:39;;;;;;;9.20;3.70;;;7.60;99.90;;;;;;5059291;28;20111;-56
2024/01/28 11:38:09;;;;;;;9.23;3.38;;;8.00;99.90;;;;;;5058754;28;20029;-56
2024/01/28 11:40:36;;;;;;;9.65;3.55;;;8.20;99.90;;;;;;5058008;28;20523;-57
2024/01/28 11:43:06;;;;;;;8.85;3.40;;;8.40;99.90;;;;;;5057153;28;20057;-57
2024/01/28 11:45:32;;;;;;;8.75;3.35;;;8.50;99.90;;;;;;5056378;28;20479;-56
2024/01/28 11:48:04;;;;;;;8.85;3.33;;;8.70;99.90;;;;;;5055060;28;20130;-55
2024/01/28 11:50:30;;;;;;;7.32;3.15;;;8.80;99.90;;;;;;5053842;28;20045;-54
2024/01/28 11:52:55;;;;;;;8.88;3.50;;;9.00;99.90;;;;;;5056772;28;20380;-55
2024/01/28 11:55:21;;;;;;;8.75;3.33;;;9.10;99.90;;;;;;5057656;28;20032;-55
2024/01/28 11:57:48;;;;;;;9.18;3.15;;;9.20;99.90;;;;;;5058837;28;20589;-56
2024/01/28 12:00:15;;;;;;;9.20;3.28;;;9.20;99.90;;;;;;5056043;28;20044;-56
2024/01/28 12:02:42;;;;;;;9.70;3.42;;;9.30;99.90;;;;;;5055347;28;20040;-53
2024/01/28 12:05:08;;;;;;;10.27;3.10;;;9.30;99.90;;;;;;5057583;28;20122;-55
2024/01/28 12:07:36;;;;;;;11.02;3.38;;;9.30;99.90;;;;;;5056028;28;20170;-55
2024/01/28 12:10:06;;;;;;;7.55;3.05;;;9.30;99.90;;;;;;5056453;28;20514;-56
2024/01/28 12:12:34;;;;;;;10.07;3.10;;;9.30;99.90;;;;;;5056312;28;20119;-55
2024/01/28 12:15:03;;;;;;;8.50;3.67;;;9.40;99.90;;;;;;5055466;28;20388;-56
2024/01/28 12:17:34;;;;;;;7.43;3.05;;;9.40;99.90;;;;;;5054647;28;20099;-55
2024/01/28 12:20:00;;;;;;;8.10;3.28;;;9.50;99.90;;;;;;5055898;28;20072;-55
2024/01/28 12:22:26;;;;;;;9.05;3.47;;;9.60;99.90;;;;;;5055815;28;20078;-56
2024/01/28 12:24:52;;;;;;;7.10;3.22;;;9.70;99.90;;;;;;5055548;28;20056;-56
2024/01/28 12:27:18;;;;;;;8.05;3.25;;;9.70;99.90;;;;;;5055938;28;20056;-55
2024/01/28 12:29:45;;;;;;;9.50;3.72;;;9.80;99.90;;;;;;5055006;28;20074;-56
2024/01/28 12:32:11;;;;;;;7.43;3.30;;;9.90;99.90;;;;;;5055375;28;20041;-55
2024/01/28 12:34:36;;;;;;;9.80;3.42;;;9.90;99.90;;;;;;5054674;28;20032;-56
2024/01/28 12:37:03;;;;;;;9.60;3.60;;;9.90;99.90;;;;;;5056471;28;20535;-55
2024/01/28 12:39:28;;;;;;;9.88;3.70;;;10.00;99.90;;;;;;5056410;28;20123;-56
2024/01/28 12:41:54;;;;;;;10.25;3.83;;;10.10;99.90;;;;;;5056385;28;21169;-56
2024/01/28 12:44:20;;;;;;;8.52;3.70;;;10.30;99.90;;;;;;5057980;28;20039;-56